sensor_id;sensor_type;location;lat;lon;timestamp;pressure;altitude;pressure_sealevel;temperature;humidity
55077;BME280;40971;44.702;11.030;2023-04-19T00:07:32;101579.00;;;10.82;75.12
55077;BME280;40971;44.702;11.030;2023-04-19T00:17:34;101574.59;;;11.10;74.47
55077;BME280;40971;44.702;11.030;2023-04-19T00:27:37;101567.44;;;11.02;76.76
55077;BME280;40971;44.702;11.030;2023-04-19T00:37:39;101560.69;;;10.90;75.74
55077;BME280;40971;44.702;11.030;2023-04-19T00:47:40;101554.88;;;10.87;77.60
55077;BME280;40971;44.702;11.030;2023-04-19T00:57:42;101550.66;;;11.03;77.24
55077;BME280;40971;44.702;11.030;2023-04-19T01:07:44;101539.25;;;11.13;76.15
55077;BME280;40971;44.702;11.030;2023-04-19T01:17:49;101544.72;;;11.01;76.66
55077;BME280;40971;44.702;11.030;2023-04-19T01:27:50;101545.00;;;10.98;75.37
55077;BME280;40971;44.702;11.030;2023-04-19T01:37:51;101540.31;;;10.92;75.95
55077;BME280;40971;44.702;11.030;2023-04-19T01:47:56;101537.94;;;10.62;75.25
55077;BME280;40971;44.702;11.030;2023-04-19T01:57:59;101537.75;;;10.27;77.79
55077;BME280;40971;44.702;11.030;2023-04-19T02:08:00;101537.31;;;10.22;77.69
55077;BME280;40971;44.702;11.030;2023-04-19T02:18:02;101532.75;;;9.85;77.87
55077;BME280;40971;44.702;11.030;2023-04-19T02:28:07;101530.28;;;9.93;78.92
55077;BME280;40971;44.702;11.030;2023-04-19T02:38:08;101528.91;;;9.89;80.26
55077;BME280;40971;44.702;11.030;2023-04-19T02:48:09;101523.94;;;9.96;79.97
55077;BME280;40971;44.702;11.030;2023-04-19T02:58:11;101507.34;;;9.76;79.53
55077;BME280;40971;44.702;11.030;2023-04-19T03:08:14;101516.47;;;9.72;80.47
55077;BME280;40971;44.702;11.030;2023-04-19T03:18:15;101513.00;;;9.62;80.20
55077;BME280;40971;44.702;11.030;2023-04-19T03:28:18;101511.19;;;10.01;80.40
55077;BME280;40971;44.702;11.030;2023-04-19T03:38:21;101511.63;;;9.97;79.36
55077;BME280;40971;44.702;11.030;2023-04-19T03:48:23;101487.13;;;10.25;79.05
55077;BME280;40971;44.702;11.030;2023-04-19T03:58:24;101495.81;;;10.35;76.89
55077;BME280;40971;44.702;11.030;2023-04-19T04:08:26;101498.19;;;10.09;78.46
55077;BME280;40971;44.702;11.030;2023-04-19T04:18:28;101496.56;;;9.89;78.50
55077;BME280;40971;44.702;11.030;2023-04-19T04:28:30;101506.63;;;9.55;80.14
55077;BME280;40971;44.702;11.030;2023-04-19T04:38:34;101506.78;;;9.63;81.27
55077;BME280;40971;44.702;11.030;2023-04-19T04:48:36;101508.31;;;9.56;80.35
55077;BME280;40971;44.702;11.030;2023-04-19T04:58:39;101517.56;;;9.60;80.25
55077;BME280;40971;44.702;11.030;2023-04-19T05:08:43;101514.09;;;9.88;80.49
55077;BME280;40971;44.702;11.030;2023-04-19T05:18:46;101508.69;;;10.28;80.61
55077;BME280;40971;44.702;11.030;2023-04-19T05:28:48;101505.69;;;10.97;79.75
55077;BME280;40971;44.702;11.030;2023-04-19T05:38:50;101507.19;;;11.62;77.70
55077;BME280;40971;44.702;11.030;2023-04-19T05:48:52;101509.31;;;12.11;74.67
55077;BME280;40971;44.702;11.030;2023-04-19T05:58:57;101511.81;;;12.39;71.15
55077;BME280;40971;44.702;11.030;2023-04-19T06:09:01;101511.38;;;12.51;71.35
55077;BME280;40971;44.702;11.030;2023-04-19T06:19:03;101509.50;;;12.69;71.80
55077;BME280;40971;44.702;11.030;2023-04-19T06:29:06;101516.97;;;12.82;70.65
55077;BME280;40971;44.702;11.030;2023-04-19T06:39:09;101508.13;;;12.91;69.41
55077;BME280;40971;44.702;11.030;2023-04-19T06:49:13;101503.66;;;13.33;67.49
55077;BME280;40971;44.702;11.030;2023-04-19T06:59:19;101501.88;;;14.47;64.12
55077;BME280;40971;44.702;11.030;2023-04-19T07:09:20;101502.38;;;15.82;57.53
55077;BME280;40971;44.702;11.030;2023-04-19T07:19:25;101499.59;;;16.94;54.78
55077;BME280;40971;44.702;11.030;2023-04-19T07:29:28;101495.16;;;18.21;51.10
55077;BME280;40971;44.702;11.030;2023-04-19T07:39:30;101486.84;;;18.65;50.43
55077;BME280;40971;44.702;11.030;2023-04-19T07:49:33;101486.16;;;19.45;48.26
55077;BME280;40971;44.702;11.030;2023-04-19T07:59:35;101479.06;;;19.11;46.79
55077;BME280;40971;44.702;11.030;2023-04-19T08:09:37;101479.84;;;19.79;46.57
55077;BME280;40971;44.702;11.030;2023-04-19T08:19:41;101481.47;;;20.39;44.06
55077;BME280;40971;44.702;11.030;2023-04-19T08:29:43;101479.09;;;21.32;42.04
55077;BME280;40971;44.702;11.030;2023-04-19T08:39:45;101470.19;;;20.94;41.67
55077;BME280;40971;44.702;11.030;2023-04-19T08:49:47;101465.78;;;22.07;39.41
55077;BME280;40971;44.702;11.030;2023-04-19T08:59:49;101447.59;;;22.88;37.47
55077;BME280;40971;44.702;11.030;2023-04-19T09:20:07;101430.91;;;23.45;35.04
55077;BME280;40971;44.702;11.030;2023-04-19T09:30:11;101423.94;;;23.56;34.11
55077;BME280;40971;44.702;11.030;2023-04-19T09:40:23;101399.53;;;23.57;34.29
55077;BME280;40971;44.702;11.030;2023-04-19T09:50:27;101391.50;;;23.92;34.75
55077;BME280;40971;44.702;11.030;2023-04-19T10:00:30;101379.47;;;24.06;34.59
55077;BME280;40971;44.702;11.030;2023-04-19T10:10:34;101382.09;;;21.86;36.65
55077;BME280;40971;44.702;11.030;2023-04-19T10:21:02;101358.75;;;21.51;35.92
55077;BME280;40971;44.702;11.030;2023-04-19T10:31:11;101347.56;;;22.21;35.44
55077;BME280;40971;44.702;11.030;2023-04-19T10:41:16;101334.88;;;23.47;33.81
55077;BME280;40971;44.702;11.030;2023-04-19T10:51:25;101315.50;;;22.92;36.41
55077;BME280;40971;44.702;11.030;2023-04-19T11:01:43;101295.03;;;22.38;38.21
55077;BME280;40971;44.702;11.030;2023-04-19T11:11:46;101280.41;;;22.94;35.90
55077;BME280;40971;44.702;11.030;2023-04-19T11:21:48;101264.25;;;23.70;35.59
55077;BME280;40971;44.702;11.030;2023-04-19T11:31:49;101259.22;;;23.15;35.15
55077;BME280;40971;44.702;11.030;2023-04-19T11:41:53;101237.75;;;22.81;33.36
55077;BME280;40971;44.702;11.030;2023-04-19T11:52:01;101221.19;;;23.07;34.85
55077;BME280;40971;44.702;11.030;2023-04-19T12:02:11;101207.97;;;23.75;32.16
55077;BME280;40971;44.702;11.030;2023-04-19T12:12:30;101197.41;;;23.45;31.69
55077;BME280;40971;44.702;11.030;2023-04-19T12:22:33;101173.56;;;23.60;33.72
55077;BME280;40971;44.702;11.030;2023-04-19T12:32:35;101161.97;;;23.71;30.52
55077;BME280;40971;44.702;11.030;2023-04-19T12:42:36;101142.16;;;23.61;30.64
55077;BME280;40971;44.702;11.030;2023-04-19T12:52:39;101144.16;;;23.54;32.88
55077;BME280;40971;44.702;11.030;2023-04-19T13:02:43;101120.31;;;25.14;31.11
55077;BME280;40971;44.702;11.030;2023-04-19T13:12:46;101096.56;;;24.06;31.96
55077;BME280;40971;44.702;11.030;2023-04-19T13:22:47;101076.56;;;23.85;31.19
55077;BME280;40971;44.702;11.030;2023-04-19T13:32:50;101064.75;;;25.99;30.25
55077;BME280;40971;44.702;11.030;2023-04-19T13:42:53;101025.66;;;24.40;28.28
55077;BME280;40971;44.702;11.030;2023-04-19T13:52:58;101014.50;;;24.15;30.47
55077;BME280;40971;44.702;11.030;2023-04-19T14:03:01;100994.72;;;23.88;29.45
55077;BME280;40971;44.702;11.030;2023-04-19T14:13:03;100981.34;;;23.93;29.80
55077;BME280;40971;44.702;11.030;2023-04-19T14:23:06;100974.81;;;25.20;28.25
55077;BME280;40971;44.702;11.030;2023-04-19T14:33:09;100965.72;;;25.48;28.55
55077;BME280;40971;44.702;11.030;2023-04-19T14:43:14;100950.28;;;24.13;31.83
55077;BME280;40971;44.702;11.030;2023-04-19T14:53:17;100942.81;;;23.37;32.84
55077;BME280;40971;44.702;11.030;2023-04-19T15:03:20;100936.41;;;23.38;31.16
55077;BME280;40971;44.702;11.030;2023-04-19T15:13:23;100931.69;;;23.45;33.56
55077;BME280;40971;44.702;11.030;2023-04-19T15:23:26;100935.09;;;22.84;34.26
55077;BME280;40971;44.702;11.030;2023-04-19T15:33:28;100932.72;;;22.36;35.39
55077;BME280;40971;44.702;11.030;2023-04-19T15:43:29;100922.47;;;22.45;33.87
55077;BME280;40971;44.702;11.030;2023-04-19T15:53:31;100927.22;;;22.54;33.72
55077;BME280;40971;44.702;11.030;2023-04-19T16:03:33;100921.78;;;22.38;34.02
55077;BME280;40971;44.702;11.030;2023-04-19T16:13:35;100926.69;;;22.06;35.83
55077;BME280;40971;44.702;11.030;2023-04-19T16:23:37;100921.34;;;21.41;35.70
55077;BME280;40971;44.702;11.030;2023-04-19T16:33:40;100923.47;;;20.91;38.96
55077;BME280;40971;44.702;11.030;2023-04-19T16:43:43;100911.28;;;20.66;39.83
55077;BME280;40971;44.702;11.030;2023-04-19T16:53:46;100908.31;;;20.38;40.95
55077;BME280;40971;44.702;11.030;2023-04-19T17:03:49;100900.53;;;20.11;41.41
55077;BME280;40971;44.702;11.030;2023-04-19T17:13:50;100914.41;;;18.77;44.69
55077;BME280;40971;44.702;11.030;2023-04-19T17:23:51;100911.84;;;18.37;46.71
55077;BME280;40971;44.702;11.030;2023-04-19T17:33:52;100890.91;;;18.98;45.63
55077;BME280;40971;44.702;11.030;2023-04-19T17:43:53;100893.13;;;19.08;44.73
55077;BME280;40971;44.702;11.030;2023-04-19T17:53:55;100917.84;;;18.20;45.72
55077;BME280;40971;44.702;11.030;2023-04-19T18:03:56;100920.72;;;17.98;45.41
55077;BME280;40971;44.702;11.030;2023-04-19T18:13:58;100927.06;;;17.65;50.87
55077;BME280;40971;44.702;11.030;2023-04-19T18:24:00;100921.47;;;17.14;53.21
55077;BME280;40971;44.702;11.030;2023-04-19T18:34:02;100933.47;;;16.56;52.04
55077;BME280;40971;44.702;11.030;2023-04-19T18:44:03;100937.06;;;16.48;52.31
55077;BME280;40971;44.702;11.030;2023-04-19T18:54:04;100967.56;;;16.24;54.22
55077;BME280;40971;44.702;11.030;2023-04-19T19:04:05;100969.81;;;16.00;55.83
55077;BME280;40971;44.702;11.030;2023-04-19T19:14:07;100980.94;;;15.67;56.51
55077;BME280;40971;44.702;11.030;2023-04-19T19:24:10;100967.72;;;15.46;57.86
55077;BME280;40971;44.702;11.030;2023-04-19T19:34:14;100982.41;;;15.13;59.67
55077;BME280;40971;44.702;11.030;2023-04-19T19:44:16;100993.38;;;14.81;60.81
55077;BME280;40971;44.702;11.030;2023-04-19T19:54:18;101000.78;;;14.71;61.12
55077;BME280;40971;44.702;11.030;2023-04-19T20:04:20;100999.59;;;14.58;61.00
55077;BME280;40971;44.702;11.030;2023-04-19T20:14:23;101025.41;;;14.42;61.72
55077;BME280;40971;44.702;11.030;2023-04-19T20:24:24;101022.56;;;14.06;64.41
55077;BME280;40971;44.702;11.030;2023-04-19T20:34:26;101032.63;;;14.63;60.85
55077;BME280;40971;44.702;11.030;2023-04-19T20:44:29;101029.72;;;14.87;59.15
55077;BME280;40971;44.702;11.030;2023-04-19T20:54:32;101037.53;;;14.66;60.42
55077;BME280;40971;44.702;11.030;2023-04-19T21:04:37;101059.78;;;14.19;64.47
55077;BME280;40971;44.702;11.030;2023-04-19T21:14:39;101057.22;;;13.88;65.50
55077;BME280;40971;44.702;11.030;2023-04-19T21:24:40;101051.06;;;13.65;67.48
55077;BME280;40971;44.702;11.030;2023-04-19T21:34:42;101060.97;;;13.40;70.87
55077;BME280;40971;44.702;11.030;2023-04-19T21:44:44;101058.25;;;13.26;73.12
55077;BME280;40971;44.702;11.030;2023-04-19T21:54:46;101063.72;;;13.16;69.96
55077;BME280;40971;44.702;11.030;2023-04-19T22:04:48;101062.59;;;13.03;69.87
55077;BME280;40971;44.702;11.030;2023-04-19T22:14:49;101063.41;;;13.03;67.73
55077;BME280;40971;44.702;11.030;2023-04-19T22:24:52;101066.41;;;13.08;65.42
55077;BME280;40971;44.702;11.030;2023-04-19T22:34:53;101063.03;;;13.22;63.73
55077;BME280;40971;44.702;11.030;2023-04-19T22:44:54;101059.78;;;13.43;61.15
55077;BME280;40971;44.702;11.030;2023-04-19T22:54:55;101067.69;;;13.51;59.77
55077;BME280;40971;44.702;11.030;2023-04-19T23:04:56;101059.63;;;13.45;60.40
55077;BME280;40971;44.702;11.030;2023-04-19T23:14:58;101063.44;;;13.42;61.81
55077;BME280;40971;44.702;11.030;2023-04-19T23:24:59;101056.38;;;13.34;62.56
55077;BME280;40971;44.702;11.030;2023-04-19T23:35:00;101065.16;;;13.27;64.00
55077;BME280;40971;44.702;11.030;2023-04-19T23:45:01;101062.06;;;13.15;64.75
55077;BME280;40971;44.702;11.030;2023-04-19T23:55:03;101058.94;;;13.20;65.59
